createdAt,value
2017-04-18T00:09:47.419Z,2
2017-04-18T00:19:47.425Z,2
2017-04-18T00:29:47.408Z,3
2017-04-18T00:39:47.484Z,3
2017-04-18T00:49:47.379Z,4
2017-04-18T00:59:47.711Z,5
2017-04-18T01:09:47.409Z,7
2017-04-18T01:19:47.465Z,6
2017-04-18T01:29:47.430Z,5
2017-04-18T01:39:47.576Z,7
2017-04-18T01:49:47.520Z,6
2017-04-18T01:59:47.757Z,6
2017-04-18T02:09:47.557Z,5
2017-04-18T02:19:47.683Z,5
2017-04-18T02:29:47.560Z,4
2017-04-18T02:39:47.557Z,4
2017-04-18T02:49:47.452Z,6
2017-04-18T02:59:47.527Z,4
2017-04-18T03:09:47.510Z,5
2017-04-18T03:19:47.560Z,5
2017-04-18T03:29:47.597Z,5
2017-04-18T03:39:47.503Z,5
2017-04-18T03:49:47.563Z,6
2017-04-18T03:59:47.540Z,5
2017-04-18T04:09:47.573Z,5
2017-04-18T04:19:47.520Z,6
2017-04-18T04:29:47.600Z,6
2017-04-18T04:39:47.610Z,6
2017-04-18T04:49:47.629Z,5
2017-04-18T04:59:47.611Z,6
2017-04-18T05:09:47.667Z,7
2017-04-18T05:19:47.589Z,5
2017-04-18T05:30:04.890Z,5
2017-04-18T05:39:47.650Z,5
2017-04-18T05:49:47.593Z,5
2017-04-18T05:59:47.661Z,5
2017-04-18T06:09:47.606Z,5
2017-04-18T06:19:47.679Z,5
2017-04-18T06:29:47.631Z,4
2017-04-18T06:39:47.692Z,4
2017-04-18T06:49:47.736Z,3
2017-04-18T06:59:47.710Z,4
2017-04-18T07:09:47.831Z,4
2017-04-18T07:19:47.729Z,4
2017-04-18T07:29:47.691Z,4
2017-04-18T07:39:47.780Z,4
2017-04-18T07:49:47.745Z,2
2017-04-18T07:59:47.678Z,3
2017-04-18T08:09:47.726Z,3
2017-04-18T08:19:49.196Z,3
2017-04-18T08:29:47.716Z,3
2017-04-18T08:39:47.784Z,2
2017-04-18T08:49:47.787Z,2
2017-04-18T08:59:47.724Z,2
2017-04-18T09:09:47.764Z,3
2017-04-18T09:19:47.809Z,4
2017-04-18T09:29:47.769Z,5
2017-04-18T09:39:47.777Z,6
2017-04-18T09:49:47.843Z,6
2017-04-18T09:59:47.793Z,7
2017-04-18T10:09:47.810Z,5
2017-04-18T10:19:47.797Z,5
2017-04-18T10:29:47.805Z,5
2017-04-18T10:39:47.829Z,5
2017-04-18T10:49:47.928Z,5
2017-04-18T10:59:47.938Z,5
2017-04-18T11:09:47.877Z,6
2017-04-18T11:19:48.172Z,8
2017-04-18T11:29:48.170Z,7
2017-04-18T11:39:47.871Z,8
2017-04-18T11:49:47.895Z,7
2017-04-18T11:59:47.930Z,9
2017-04-18T12:09:48.029Z,9
2017-04-18T12:19:48.015Z,9
2017-04-18T12:29:49.668Z,9
2017-04-18T12:39:52.624Z,8
2017-04-18T12:49:48.071Z,6
2017-04-18T13:08:06.648Z,8
2017-04-18T13:18:06.385Z,8
2017-04-18T13:28:07.097Z,8
2017-04-18T13:38:06.444Z,8
2017-04-18T13:48:06.520Z,7
2017-04-18T13:58:06.482Z,5
2017-04-18T14:08:06.506Z,7
2017-04-18T14:18:06.535Z,8
2017-04-18T14:28:06.515Z,8
2017-04-18T14:38:06.476Z,7
2017-04-18T14:48:06.376Z,8
2017-04-18T14:58:06.609Z,7
2017-04-18T15:08:06.401Z,8
2017-04-18T15:18:06.319Z,7
2017-04-18T15:28:06.434Z,7
2017-04-18T15:38:06.471Z,6
2017-04-18T15:48:06.691Z,6
2017-04-18T15:58:06.477Z,7
2017-04-18T16:08:06.551Z,7
2017-04-18T16:18:06.456Z,8
2017-04-18T16:28:06.494Z,6
2017-04-18T16:38:06.355Z,6
2017-04-18T16:48:06.674Z,7
2017-04-18T16:58:06.389Z,6
2017-04-18T17:08:06.438Z,6
2017-04-18T17:18:06.564Z,5
2017-04-18T17:28:06.381Z,6
2017-04-18T17:38:06.447Z,6
2017-04-18T17:48:06.635Z,7
2017-04-18T17:58:06.390Z,6
2017-04-18T18:08:06.432Z,5
2017-04-18T18:18:06.407Z,6
2017-04-18T18:28:06.421Z,6
2017-04-18T18:38:06.368Z,6
2017-04-18T18:48:06.358Z,7
2017-04-18T18:58:06.569Z,6
2017-04-18T19:08:06.848Z,7
2017-04-18T19:18:06.380Z,7
2017-04-18T19:28:06.574Z,8
2017-04-18T19:38:06.486Z,6
2017-04-18T19:48:06.685Z,6
2017-04-18T19:58:06.429Z,6
2017-04-18T20:08:06.373Z,5
2017-04-18T20:18:06.531Z,7
2017-04-18T20:28:06.652Z,6
2017-04-18T20:38:06.596Z,6
2017-04-18T20:48:06.725Z,4
2017-04-18T20:58:06.700Z,4
2017-04-18T21:08:06.436Z,5
2017-04-18T21:18:06.835Z,5
2017-04-18T21:28:07.193Z,5
2017-04-18T21:38:07.116Z,5
2017-04-18T21:48:06.690Z,5
2017-04-18T21:58:06.852Z,5
2017-04-18T22:08:06.851Z,5
2017-04-18T22:18:07.152Z,5
2017-04-18T22:28:06.792Z,6
2017-04-18T22:38:06.466Z,5
2017-04-18T22:48:06.637Z,6
2017-04-18T22:58:06.676Z,5
2017-04-18T23:08:06.406Z,5
2017-04-18T23:18:06.375Z,5
2017-04-18T23:28:06.441Z,5
2017-04-18T23:38:06.730Z,5
2017-04-18T23:48:06.851Z,5
2017-04-18T23:58:06.432Z,5
